Accueil
METAR-TAF:

METAR-TAF

Aéroports :

Base d'aéronautique navale de Lanvéoc-Poulmic

Lanvéoc, France

latitude: 48-17N, longitude: 004-26W, altitude: 87 m

Observation

Le bulletin a été fait il y a 24 minutes, à 03:00 UTC
Vent 5 kt de nord-est
Température 3°C
Humidité 93%
Pression 1028 hPa
Visibilité: 9000 m

METAR: LFRL 170300Z AUTO 04005KT 9000 NSC 03/02 Q1028

Heure: 05:24 (03:24 UTC)

Prévision

Le bulletin a été fait il y a 16 heures et 24 minutes, à 11:00 UTC
Prévision valable du 16 à 12 UTC au 17 à 12 UTC
Vent 10 kt de est/nord-est
Visibilité 10 km ou plus
pas de nuages en-dessous de 1500 mètres et pas de cumulonimbus.
Temporairement
du 16 à 16 UTC au 16 à 20 UTC
Vent 10 kt de est/nord-est avec des rafales jusqu'à 22 kt

TAF: LFRL 161100Z 1612/1712 06010KT CAVOK TEMPO 1616/1620 06010G22KT

Observations et prévisions météorologiques de plus de 4000 aéroports (messages METAR et TAF).

Les stations disponibles sont représentées par des disques jaunes et rouges sur la carte.

Passer la souris dessus pour voir le nom de la station.

Cliquer dessus pour voir les observations et prévisions météorologiques.

Pour changer de carte: cliquez sur les boutons verts avec une croix noire pour zoomer, sur le bouton vert avec un tiret pour effectuer un zoom arrière, ou sur les flèches vertes pour les cartes adjacentes.


METAR-TAF: